createdAt,value
2018-09-10T00:00:49.423Z,100213.26
2018-09-10T00:02:24.960Z,100213.73
2018-09-10T00:04:00.480Z,100216.41
2018-09-10T00:05:36.051Z,100213.73
2018-09-10T00:07:11.575Z,100217.73
2018-09-10T00:08:49.732Z,100217.11
2018-09-10T00:10:25.236Z,100222.55
2018-09-10T00:12:00.755Z,100219.50
2018-09-10T00:13:36.275Z,100220.89
2018-09-10T00:15:11.745Z,100222.02
2018-09-10T00:16:47.304Z,100218.65
2018-09-10T00:18:22.800Z,100222.09
2018-09-10T00:19:58.521Z,100222.09
2018-09-10T00:21:34.058Z,100229.45
2018-09-10T00:23:09.583Z,100191.36
2018-09-10T00:24:51.380Z,100230.92
2018-09-10T00:26:26.902Z,100229.95
2018-09-10T00:28:02.385Z,100230.06
2018-09-10T00:29:37.946Z,100228.64
2018-09-10T00:31:14.549Z,100234.89
2018-09-10T00:32:50.112Z,100224.06
2018-09-10T00:34:25.662Z,100227.94
2018-09-10T00:36:01.224Z,100229.10
2018-09-10T00:37:36.853Z,100231.90
2018-09-10T00:39:14.271Z,100235.30
2018-09-10T00:40:49.770Z,100239.98
2018-09-10T00:42:25.332Z,100236.81
2018-09-10T00:44:00.848Z,100231.55
2018-09-10T00:45:36.396Z,100227.91
2018-09-10T00:47:11.927Z,100230.42
2018-09-10T00:48:47.509Z,100224.55
2018-09-10T00:50:23.000Z,100221.21
2018-09-10T00:51:58.540Z,100224.56
2018-09-10T00:53:34.168Z,100232.52
2018-09-10T00:55:09.746Z,100227.83
2018-09-10T00:56:45.362Z,100229.63
2018-09-10T00:58:20.938Z,100225.04
2018-09-10T00:59:56.449Z,100224.09
2018-09-10T01:01:31.991Z,100228.81
2018-09-10T01:03:08.056Z,100232.31
2018-09-10T01:04:43.554Z,100231.59
2018-09-10T01:06:19.117Z,100229.66
2018-09-10T01:07:54.661Z,100228.81
2018-09-10T01:09:31.229Z,100224.00
2018-09-10T01:11:06.773Z,100222.09
2018-09-10T01:12:42.350Z,100223.18
2018-09-10T01:14:17.984Z,100224.00
2018-09-10T01:15:53.498Z,100221.00
2018-09-10T01:17:29.079Z,100220.88
2018-09-10T01:19:04.585Z,100221.13
2018-09-10T01:20:40.249Z,100220.40
2018-09-10T01:22:15.764Z,100217.52
2018-09-10T01:23:51.350Z,100214.02
2018-09-10T01:25:27.190Z,100215.47
2018-09-10T01:27:02.757Z,100224.98
2018-09-10T01:28:38.287Z,100218.59
2018-09-10T01:30:13.801Z,100220.77
2018-09-10T01:31:49.486Z,100221.23
2018-09-10T01:33:30.379Z,100213.64
2018-09-10T01:35:07.180Z,100210.89
2018-09-10T01:36:42.687Z,100215.47
2018-09-10T01:38:18.257Z,100213.67
2018-09-10T01:39:53.764Z,100217.04
2018-09-10T01:41:29.296Z,100216.19
2018-09-10T01:43:04.849Z,100208.96
2018-09-10T01:44:40.438Z,100209.80
2018-09-10T01:46:16.056Z,100211.38
2018-09-10T01:47:51.586Z,100210.42
2018-09-10T01:49:27.277Z,100209.56
2018-09-10T01:51:02.747Z,100207.77
2018-09-10T01:52:38.288Z,100210.66
2018-09-10T01:54:13.829Z,100207.77
2018-09-10T01:55:49.367Z,100211.16
2018-09-10T01:57:25.007Z,100204.65
2018-09-10T01:59:00.568Z,100204.75
2018-09-10T02:00:36.109Z,100205.73
2018-09-10T02:02:11.641Z,100199.22
2018-09-10T02:03:47.183Z,100200.06
2018-09-10T02:05:22.753Z,100201.75
2018-09-10T02:06:58.261Z,100201.18
2018-09-10T02:08:33.771Z,100203.45
2018-09-10T02:10:09.283Z,100202.13
2018-09-10T02:11:45.297Z,100206.45
2018-09-10T02:13:20.781Z,100202.97
2018-09-10T02:14:56.849Z,100199.73
2018-09-10T02:16:32.414Z,100202.98
2018-09-10T02:18:07.964Z,100199.24
2018-09-10T02:19:43.464Z,100197.19
2018-09-10T02:21:18.989Z,100196.13
2018-09-10T02:22:54.519Z,100197.91
2018-09-10T02:24:31.120Z,100201.62
2018-09-10T02:26:06.664Z,100202.38
2018-09-10T02:27:42.200Z,100200.31
2018-09-10T02:29:17.753Z,100200.08
2018-09-10T02:30:53.245Z,100200.76
2018-09-10T02:32:28.788Z,100203.77
2018-09-10T02:34:04.345Z,100201.48
2018-09-10T02:35:39.904Z,100203.92
2018-09-10T02:37:15.386Z,100207.01
2018-09-10T02:38:50.898Z,100204.66
2018-09-10T02:40:26.397Z,100205.69
2018-09-10T02:42:01.998Z,100207.14
2018-09-10T02:43:37.517Z,100201.94
2018-09-10T02:45:13.031Z,100199.53
2018-09-10T02:46:48.558Z,100203.09
2018-09-10T02:48:24.050Z,100202.72
2018-09-10T02:49:59.658Z,100194.25
2018-09-10T02:51:35.405Z,100194.45
2018-09-10T02:53:10.887Z,100193.40
2018-09-10T02:54:46.484Z,100197.48
2018-09-10T02:56:21.994Z,100193.63
2018-09-10T02:57:57.526Z,100194.72
2018-09-10T02:59:33.332Z,100195.91
2018-09-10T03:01:08.809Z,100198.55
2018-09-10T03:02:44.301Z,100195.44
2018-09-10T03:04:20.930Z,100194.98
2018-09-10T03:05:56.460Z,100193.64
2018-09-10T03:07:31.999Z,100197.49
2018-09-10T03:09:08.370Z,100194.84
2018-09-10T03:10:43.937Z,100190.38
2018-09-10T03:12:19.616Z,100192.17
2018-09-10T03:13:55.140Z,100196.48
2018-09-10T03:15:30.764Z,100186.64
2018-09-10T03:17:06.279Z,100188.67
2018-09-10T03:18:41.788Z,100181.35
2018-09-10T03:20:17.358Z,100188.66
2018-09-10T03:21:54.019Z,100191.92
2018-09-10T03:23:29.593Z,100188.91
2018-09-10T03:25:05.077Z,100198.28
2018-09-10T03:26:40.680Z,100192.55
2018-09-10T03:28:16.180Z,100196.13
2018-09-10T03:29:51.685Z,100193.73
2018-09-10T03:31:27.215Z,100196.52
2018-09-10T03:33:02.721Z,100197.81
2018-09-10T03:34:38.214Z,100199.95
2018-09-10T03:36:13.875Z,100196.20
2018-09-10T03:37:49.390Z,100196.80
2018-09-10T03:39:25.182Z,100195.33
2018-09-10T03:41:00.708Z,100143.31
2018-09-10T03:42:36.254Z,100078.86
2018-09-10T03:44:11.742Z,100201.91
2018-09-10T03:45:47.284Z,100207.78
2018-09-10T03:47:22.892Z,100207.81
2018-09-10T03:48:58.431Z,100208.31
2018-09-10T03:50:34.010Z,100205.91
2018-09-10T03:52:09.566Z,100210.13
2018-09-10T03:53:45.080Z,100204.13
2018-09-10T03:55:20.610Z,100201.70
2018-09-10T03:56:56.157Z,100200.16
2018-09-10T03:58:31.727Z,100207.78
2018-09-10T04:00:07.365Z,100209.92
2018-09-10T04:01:43.109Z,100208.00
2018-09-10T04:03:18.804Z,100209.95
2018-09-10T04:04:54.423Z,100210.01
2018-09-10T04:06:29.954Z,100214.72
2018-09-10T04:08:05.479Z,100216.86
2018-09-10T04:09:41.072Z,100224.41
2018-09-10T04:11:16.584Z,100226.23
2018-09-10T04:12:52.067Z,100231.14
2018-09-10T04:14:27.575Z,100229.35
2018-09-10T04:16:03.080Z,100232.37
2018-09-10T04:17:38.626Z,100232.41
2018-09-10T04:19:14.147Z,100231.22
2018-09-10T04:20:49.823Z,100226.78
2018-09-10T04:22:25.327Z,100223.52
2018-09-10T04:24:00.884Z,100228.90
2018-09-10T04:25:36.379Z,100227.73
2018-09-10T04:27:11.910Z,100235.73
2018-09-10T04:28:47.383Z,100233.73
2018-09-10T04:30:22.894Z,100237.39
2018-09-10T04:31:58.441Z,100241.50
2018-09-10T04:33:34.175Z,100243.75
2018-09-10T04:35:10.182Z,100244.34
2018-09-10T04:36:45.677Z,100245.88
2018-09-10T04:38:21.234Z,100244.98
2018-09-10T04:39:56.811Z,100247.37
2018-09-10T04:41:38.494Z,100236.68
2018-09-10T04:43:13.972Z,100238.87
2018-09-10T04:44:49.464Z,100233.84
2018-09-10T04:46:25.000Z,100235.26
2018-09-10T04:48:00.513Z,100233.22
2018-09-10T04:49:36.878Z,100230.47
2018-09-10T04:51:12.408Z,100227.40
2018-09-10T04:52:47.924Z,100226.80
2018-09-10T04:54:23.458Z,100224.27
2018-09-10T04:55:58.972Z,100228.47
2018-09-10T04:57:34.536Z,100220.06
2018-09-10T04:59:10.091Z,100224.29
2018-09-10T05:00:45.748Z,100221.30
2018-09-10T05:02:21.315Z,100229.22
2018-09-10T05:03:56.988Z,100226.95
2018-09-10T05:05:32.550Z,100222.38
2018-09-10T05:07:08.257Z,100228.50
2018-09-10T05:08:43.840Z,100227.78
2018-09-10T05:10:19.472Z,100228.08
2018-09-10T05:11:55.065Z,100227.48
2018-09-10T05:13:31.046Z,100228.44
2018-09-10T05:15:06.615Z,100231.33
2018-09-10T05:16:42.132Z,100229.91
2018-09-10T05:18:17.706Z,100231.94
2018-09-10T05:19:53.246Z,100231.36
2018-09-10T05:21:28.761Z,100232.56
2018-09-10T05:23:04.274Z,100232.56
2018-09-10T05:24:39.819Z,100237.11
2018-09-10T05:26:15.473Z,100239.52
2018-09-10T05:27:50.983Z,100240.13
2018-09-10T05:29:26.592Z,100160.32
2018-09-10T05:31:02.117Z,100247.69
2018-09-10T05:32:37.659Z,100243.73
2018-09-10T05:34:13.243Z,100241.80
2018-09-10T05:35:48.927Z,100238.94
2018-09-10T05:37:24.420Z,100241.33
2018-09-10T05:38:59.926Z,100245.67
2018-09-10T05:40:35.422Z,100240.00
2018-09-10T05:42:11.291Z,100244.47
2018-09-10T05:43:46.749Z,100239.28
2018-09-10T05:45:22.257Z,100238.91
2018-09-10T05:46:57.793Z,100240.37
2018-09-10T05:48:33.278Z,100235.31
2018-09-10T05:50:09.324Z,100236.28
2018-09-10T05:51:45.443Z,100235.67
2018-09-10T05:53:21.100Z,100235.20
2018-09-10T05:54:56.558Z,100236.06
2018-09-10T05:56:32.157Z,100247.24
2018-09-10T05:58:07.758Z,100245.78
2018-09-10T05:59:43.349Z,100246.86
2018-09-10T06:01:18.861Z,100251.78
2018-09-10T06:02:54.369Z,100249.38
2018-09-10T06:04:29.885Z,100246.86
2018-09-10T06:06:05.393Z,100252.04
2018-09-10T06:07:40.957Z,100251.08
2018-09-10T06:09:16.478Z,100249.38
2018-09-10T06:10:51.994Z,100240.94
2018-09-10T06:12:27.493Z,100236.98
2018-09-10T06:14:03.135Z,100238.20
2018-09-10T06:15:38.656Z,100233.53
2018-09-10T06:17:14.269Z,100241.58
2018-09-10T06:18:49.837Z,100233.73
2018-09-10T06:20:25.347Z,100242.73
2018-09-10T06:22:00.878Z,100238.52
2018-09-10T06:23:36.359Z,100238.86
2018-09-10T06:25:11.914Z,100241.72
2018-09-10T06:26:47.388Z,100246.16
2018-09-10T06:28:23.249Z,100252.49
2018-09-10T06:29:58.758Z,100252.23
2018-09-10T06:31:34.238Z,100243.39
2018-09-10T06:33:09.775Z,100249.47
2018-09-10T06:34:45.279Z,100252.21
2018-09-10T06:36:20.805Z,100248.38
2018-09-10T06:37:56.292Z,100250.46
2018-09-10T06:39:31.835Z,100244.48
2018-09-10T06:41:07.300Z,100244.13
2018-09-10T06:42:43.188Z,100241.11
2018-09-10T06:44:18.737Z,100235.36
2018-09-10T06:45:54.267Z,100229.23
2018-09-10T06:47:29.763Z,100231.30
2018-09-10T06:49:06.281Z,100227.94
2018-09-10T06:50:41.962Z,100231.52
2018-09-10T06:52:17.469Z,100231.14
2018-09-10T06:53:52.941Z,100228.14
2018-09-10T06:55:28.526Z,100236.77
2018-09-10T06:57:04.101Z,100234.97
2018-09-10T06:58:39.637Z,100236.40
2018-09-10T07:00:15.196Z,100236.17
2018-09-10T07:01:50.707Z,100234.96
2018-09-10T07:03:26.254Z,100242.13
2018-09-10T07:05:01.799Z,100240.45
2018-09-10T07:06:37.339Z,100245.64
2018-09-10T07:08:12.881Z,100239.91
2018-09-10T07:09:48.410Z,100246.00
2018-09-10T07:11:23.876Z,100241.14
2018-09-10T07:13:00.636Z,100238.83
2018-09-10T07:14:36.089Z,100239.67
2018-09-10T07:16:11.611Z,100235.21
2018-09-10T07:17:47.270Z,100239.12
2018-09-10T07:19:22.801Z,100233.86
2018-09-10T07:20:58.287Z,100234.95
2018-09-10T07:22:33.795Z,100237.01
2018-09-10T07:24:09.288Z,100235.72
2018-09-10T07:25:44.828Z,100241.58
2018-09-10T07:27:20.543Z,100237.50
2018-09-10T07:28:56.012Z,100243.09
2018-09-10T07:30:31.552Z,100239.83
2018-09-10T07:32:07.071Z,100232.23
2018-09-10T07:33:42.684Z,100230.00
2018-09-10T07:35:18.275Z,100228.73
2018-09-10T07:36:53.737Z,100218.87
2018-09-10T07:38:29.251Z,100210.00
2018-09-10T07:40:04.796Z,100205.93
2018-09-10T07:41:40.289Z,100210.75
2018-09-10T07:43:15.811Z,100208.94
2018-09-10T07:44:51.267Z,100205.19
2018-09-10T07:46:26.727Z,100211.66
2018-09-10T07:48:03.109Z,100209.73
2018-09-10T07:49:38.587Z,100206.23
2018-09-10T07:51:14.348Z,100206.48
2018-09-10T07:52:49.867Z,100205.41
2018-09-10T07:54:27.688Z,100202.96
2018-09-10T07:56:03.241Z,100203.98
2018-09-10T07:57:40.331Z,100207.50
2018-09-10T07:59:15.817Z,100204.16
2018-09-10T08:00:51.501Z,100195.61
2018-09-10T08:02:27.071Z,100201.12
2018-09-10T08:04:02.630Z,100205.45
2018-09-10T08:05:38.135Z,100200.60
2018-09-10T08:07:13.634Z,100206.22
2018-09-10T08:08:49.174Z,100205.14
2018-09-10T08:10:24.735Z,100206.48
2018-09-10T08:12:00.202Z,100207.53
2018-09-10T08:13:35.731Z,100209.06
2018-09-10T08:15:11.408Z,100210.28
2018-09-10T08:16:46.974Z,100204.62
2018-09-10T08:18:22.488Z,100208.67
2018-09-10T08:19:58.054Z,100207.64
2018-09-10T08:21:33.613Z,100200.29
2018-09-10T08:23:09.158Z,100195.27
2018-09-10T08:24:44.669Z,100199.77
2018-09-10T08:26:20.208Z,100194.88
2018-09-10T08:27:55.716Z,100190.44
2018-09-10T08:29:31.383Z,100198.98
2018-09-10T08:31:06.929Z,100202.82
2018-09-10T08:32:42.435Z,100197.02
2018-09-10T08:34:17.909Z,100200.63
2018-09-10T08:35:53.444Z,100199.73
2018-09-10T08:37:28.962Z,100194.32
2018-09-10T08:39:05.171Z,100198.40
2018-09-10T08:40:40.693Z,100197.97
2018-09-10T08:42:16.283Z,100195.55
2018-09-10T08:43:51.937Z,100188.70
2018-09-10T08:45:27.429Z,100186.48
2018-09-10T08:47:02.995Z,100192.69
2018-09-10T08:48:38.538Z,100188.84
2018-09-10T08:50:14.067Z,100197.08
2018-09-10T08:51:49.577Z,100196.50
2018-09-10T08:53:25.097Z,100186.55
2018-09-10T08:55:00.852Z,100196.90
2018-09-10T08:56:36.169Z,100195.23
2018-09-10T08:58:11.685Z,100197.49
2018-09-10T08:59:47.252Z,100197.28
2018-09-10T09:01:22.791Z,100194.66
2018-09-10T09:02:58.332Z,100196.27
2018-09-10T09:04:33.847Z,100191.48
2018-09-10T09:06:09.328Z,100192.31
2018-09-10T09:07:44.877Z,100194.86
2018-09-10T09:09:20.355Z,100188.28
2018-09-10T09:10:55.870Z,100190.13
2018-09-10T09:12:31.364Z,100188.59
2018-09-10T09:14:07.863Z,100187.29
2018-09-10T09:15:43.472Z,100185.75
2018-09-10T09:17:18.991Z,100196.60
2018-09-10T09:18:54.475Z,100192.45
2018-09-10T09:20:29.981Z,100195.57
2018-09-10T09:22:05.523Z,100198.23
2018-09-10T09:23:41.031Z,100201.50
2018-09-10T09:25:16.509Z,100204.67
2018-09-10T09:26:52.007Z,100197.56
2018-09-10T09:28:27.523Z,100202.48
2018-09-10T09:30:02.999Z,100197.27
2018-09-10T09:31:38.467Z,100196.91
2018-09-10T09:33:14.006Z,100199.39
2018-09-10T09:34:56.101Z,100193.75
2018-09-10T09:36:37.104Z,100191.03
2018-09-10T09:38:18.028Z,100192.52
2018-09-10T09:39:58.965Z,100189.91
2018-09-10T09:41:39.773Z,100190.98
2018-09-10T09:43:20.919Z,100192.52
2018-09-10T09:45:01.701Z,100190.33
2018-09-10T09:46:37.178Z,100181.97
2018-09-10T09:48:12.653Z,100174.50
2018-09-10T09:49:48.181Z,100176.08
2018-09-10T09:51:23.680Z,100171.14
2018-09-10T09:52:59.186Z,100166.69
2018-09-10T09:54:34.657Z,100158.70
2018-09-10T09:56:10.165Z,100159.08
2018-09-10T09:57:45.888Z,100154.23
2018-09-10T09:59:21.464Z,100156.67
2018-09-10T10:01:01.137Z,100157.02
2018-09-10T10:02:42.272Z,100162.16
2018-09-10T10:04:17.897Z,100160.93
2018-09-10T10:05:53.258Z,100152.84
2018-09-10T10:07:28.845Z,100161.02
2018-09-10T10:09:07.657Z,100154.45
2018-09-10T10:10:43.105Z,100149.06
2018-09-10T10:12:18.705Z,100151.63
2018-09-10T10:13:54.186Z,100144.19
2018-09-10T10:15:29.717Z,100146.59
2018-09-10T10:17:05.253Z,100148.48
2018-09-10T10:18:40.692Z,100146.22
2018-09-10T10:20:16.265Z,100148.30
2018-09-10T10:21:51.854Z,100140.70
2018-09-10T10:23:27.370Z,100142.92
2018-09-10T10:25:04.140Z,100135.75
2018-09-10T10:26:39.648Z,100140.03
2018-09-10T10:28:16.602Z,100141.27
2018-09-10T10:29:52.038Z,100132.36
2018-09-10T10:31:33.471Z,100138.63
2018-09-10T10:33:09.307Z,100129.59
2018-09-10T10:34:45.752Z,100137.52
2018-09-10T10:36:21.243Z,100141.09
2018-09-10T10:37:56.682Z,100140.03
2018-09-10T10:39:34.799Z,100143.42
2018-09-10T10:41:10.297Z,100136.68
2018-09-10T10:42:46.449Z,100135.81
2018-09-10T10:44:22.197Z,100145.04
2018-09-10T10:45:57.718Z,100140.11
2018-09-10T10:47:33.342Z,100138.63
2018-09-10T10:49:08.755Z,100131.80
2018-09-10T10:50:44.319Z,100127.41
2018-09-10T10:52:19.869Z,100129.70
2018-09-10T10:53:56.202Z,100123.95
2018-09-10T10:55:33.927Z,100123.80
2018-09-10T10:57:09.375Z,100124.27
2018-09-10T10:58:44.866Z,100123.78
2018-09-10T11:00:21.685Z,100128.56
2018-09-10T11:01:57.246Z,100126.24
2018-09-10T11:03:33.147Z,100120.41
2018-09-10T11:05:08.635Z,100121.52
2018-09-10T11:06:44.080Z,100121.02
2018-09-10T11:08:20.171Z,100115.61
2018-09-10T11:09:55.689Z,100114.34
2018-09-10T11:11:32.744Z,100114.44
2018-09-10T11:13:09.558Z,100113.65
2018-09-10T11:14:45.040Z,100107.47
2018-09-10T11:16:20.948Z,100104.28
2018-09-10T11:17:56.669Z,100108.34
2018-09-10T11:19:32.409Z,100112.81
2018-09-10T11:21:07.949Z,100111.45
2018-09-10T11:22:44.063Z,100108.14
2018-09-10T11:24:19.554Z,100111.60
2018-09-10T11:25:56.134Z,100109.52
2018-09-10T11:27:31.683Z,100104.27
2018-09-10T11:29:08.211Z,100110.33
2018-09-10T11:30:43.711Z,100106.61
2018-09-10T11:32:19.318Z,100106.34
2018-09-10T11:33:55.825Z,100106.20
2018-09-10T11:35:31.273Z,100101.05
2018-09-10T11:37:07.079Z,100110.19
2018-09-10T11:38:43.461Z,100104.41
2018-09-10T11:40:18.962Z,100108.78
2018-09-10T11:41:56.832Z,100095.67
2018-09-10T11:43:32.371Z,100102.30
2018-09-10T11:45:09.242Z,100104.63
2018-09-10T11:46:44.760Z,100109.84
2018-09-10T11:48:20.354Z,100104.11
2018-09-10T11:49:55.891Z,100105.06
2018-09-10T11:51:32.898Z,100099.77
2018-09-10T11:53:08.446Z,100101.92
2018-09-10T11:54:44.524Z,100100.28
2018-09-10T11:56:21.028Z,100093.94
2018-09-10T11:57:57.366Z,100004.21
2018-09-10T11:59:34.199Z,100097.47
2018-09-10T12:01:09.743Z,100087.33
2018-09-10T12:02:45.204Z,100096.70
2018-09-10T12:04:20.764Z,100093.94
2018-09-10T12:05:56.229Z,100090.08
2018-09-10T12:07:31.763Z,100082.53
2018-09-10T12:09:08.699Z,100073.39
2018-09-10T12:10:44.363Z,100076.08
2018-09-10T12:12:21.110Z,100064.88
2018-09-10T12:13:56.592Z,100059.94
2018-09-10T12:15:33.536Z,100061.27
2018-09-10T12:17:09.303Z,100059.69
2018-09-10T12:18:44.943Z,100053.95
2018-09-10T12:20:20.422Z,100061.95
2018-09-10T12:21:57.027Z,100061.97
2018-09-10T12:23:32.490Z,100059.95
2018-09-10T12:25:08.025Z,100056.97
2018-09-10T12:26:43.520Z,100059.38
2018-09-10T12:28:19.353Z,100059.72
2018-09-10T12:29:55.011Z,100050.39
2018-09-10T12:31:30.850Z,100059.33
2018-09-10T12:33:06.359Z,100059.30
2018-09-10T12:34:41.941Z,100054.13
2018-09-10T12:36:17.439Z,100052.26
2018-09-10T12:37:54.462Z,100051.34
2018-09-10T12:39:32.103Z,100053.02
2018-09-10T12:41:07.681Z,100046.05
2018-09-10T12:42:43.321Z,100047.41
2018-09-10T12:44:18.759Z,100053.45
2018-09-10T12:45:54.204Z,100048.80
2018-09-10T12:47:29.709Z,100040.91
2018-09-10T12:49:05.182Z,100046.92
2018-09-10T12:50:40.677Z,100046.73
2018-09-10T12:52:16.202Z,100050.34
2018-09-10T12:53:51.694Z,100059.59
2018-09-10T12:55:28.287Z,100046.68
2018-09-10T12:57:03.741Z,100049.33
2018-09-10T12:58:42.240Z,100043.52
2018-09-10T13:00:17.774Z,100044.94
2018-09-10T13:01:53.344Z,100043.36
2018-09-10T13:03:28.904Z,100047.12
2018-09-10T13:05:04.367Z,100048.47
2018-09-10T13:06:40.024Z,100041.92
2018-09-10T13:08:15.586Z,100045.36
2018-09-10T13:09:51.310Z,100047.95
2018-09-10T13:11:26.813Z,100052.97
2018-09-10T13:13:02.543Z,100043.38
2018-09-10T13:14:38.259Z,100039.87
2018-09-10T13:16:13.836Z,100029.98
2018-09-10T13:17:49.375Z,100026.55
2018-09-10T13:19:25.887Z,100026.34
2018-09-10T13:21:01.394Z,100024.08
2018-09-10T13:22:36.904Z,100017.86
2018-09-10T13:24:12.864Z,100019.69
2018-09-10T13:25:48.329Z,100019.64
2018-09-10T13:27:23.818Z,100018.53
2018-09-10T13:28:59.473Z,100021.02
2018-09-10T13:30:34.923Z,100015.47
2018-09-10T13:32:10.533Z,100020.56
2018-09-10T13:33:46.004Z,100008.90
2018-09-10T13:35:21.478Z,100011.05
2018-09-10T13:36:56.994Z,100006.22
2018-09-10T13:38:32.449Z,100000.12
2018-09-10T13:40:07.916Z,99997.57
2018-09-10T13:41:43.437Z,99998.52
2018-09-10T13:43:18.938Z,100004.03
2018-09-10T13:44:54.460Z,100000.25
2018-09-10T13:46:29.900Z,99996.66
2018-09-10T13:48:05.444Z,100002.31
2018-09-10T13:49:40.988Z,100006.67
2018-09-10T13:51:17.235Z,100005.64
2018-09-10T13:52:52.775Z,100006.09
2018-09-10T13:54:28.343Z,100009.27
2018-09-10T13:56:03.870Z,100010.66
2018-09-10T13:57:39.333Z,100006.54
2018-09-10T13:59:14.852Z,100010.45
2018-09-10T14:00:50.592Z,100001.12
2018-09-10T14:02:26.182Z,100008.80
2018-09-10T14:04:01.660Z,100009.10
2018-09-10T14:05:37.629Z,100006.48
2018-09-10T14:07:13.218Z,100014.27
2018-09-10T14:08:48.830Z,100007.98
2018-09-10T14:10:24.306Z,100013.48
2018-09-10T14:11:59.802Z,100001.72
2018-09-10T14:13:35.395Z,100009.03
2018-09-10T14:15:10.926Z,100013.36
2018-09-10T14:16:46.603Z,100013.56
2018-09-10T14:18:22.255Z,100013.02
2018-09-10T14:19:57.730Z,100014.45
2018-09-10T14:21:33.246Z,100014.19
2018-09-10T14:23:08.833Z,100022.34
2018-09-10T14:24:46.352Z,100021.00
2018-09-10T14:26:21.867Z,100012.32
2018-09-10T14:27:57.465Z,100010.00
2018-09-10T14:29:33.104Z,99960.72
2018-09-10T14:31:08.930Z,100008.87
2018-09-10T14:32:44.404Z,100008.06
2018-09-10T14:34:20.982Z,100005.53
2018-09-10T14:35:56.454Z,100012.38
2018-09-10T14:37:31.917Z,100018.96
2018-09-10T14:39:07.828Z,100015.50
2018-09-10T14:40:43.306Z,100013.46
2018-09-10T14:42:18.860Z,100015.59
2018-09-10T14:43:54.333Z,100017.48
2018-09-10T14:45:29.954Z,100020.81
2018-09-10T14:47:05.813Z,100019.55
2018-09-10T14:48:41.301Z,100016.48
2018-09-10T14:50:16.828Z,100015.31
2018-09-10T14:51:52.628Z,100024.69
2018-09-10T14:53:28.111Z,100024.20
2018-09-10T14:55:03.826Z,100032.95
2018-09-10T14:56:39.307Z,100030.16
2018-09-10T14:58:14.859Z,100026.32
2018-09-10T14:59:50.368Z,100034.30
2018-09-10T15:01:25.932Z,100031.42
2018-09-10T15:03:01.430Z,100033.95
2018-09-10T15:04:36.878Z,100041.72
2018-09-10T15:06:12.399Z,100037.58
2018-09-10T15:07:47.908Z,100037.67
2018-09-10T15:09:23.419Z,100041.22
2018-09-10T15:10:58.969Z,100043.30
2018-09-10T15:12:34.465Z,100036.09
2018-09-10T15:14:10.063Z,100045.13
2018-09-10T15:15:45.547Z,100035.77
2018-09-10T15:17:21.090Z,100039.81
2018-09-10T15:18:56.758Z,100038.78
2018-09-10T15:20:32.090Z,100032.24
2018-09-10T15:22:07.591Z,100025.59
2018-09-10T15:23:43.644Z,100018.00
2018-09-10T15:25:19.390Z,100020.81
2018-09-10T15:26:54.897Z,100022.89
2018-09-10T15:28:30.379Z,100021.11
2018-09-10T15:30:05.903Z,100013.85
2018-09-10T15:31:41.399Z,100019.03
2018-09-10T15:33:16.915Z,100022.03
2018-09-10T15:34:52.443Z,100017.17
2018-09-10T15:36:27.923Z,100015.31
2018-09-10T15:38:03.844Z,100014.04
2018-09-10T15:39:39.321Z,100017.58
2018-09-10T15:41:14.862Z,100010.98
2018-09-10T15:42:50.373Z,100012.80
2018-09-10T15:44:25.843Z,100013.14
2018-09-10T15:46:01.361Z,100014.17
2018-09-10T15:47:37.211Z,100014.39
2018-09-10T15:49:12.765Z,100015.33
2018-09-10T15:50:48.324Z,100018.12
2018-09-10T15:52:30.624Z,100020.09
2018-09-10T15:54:06.795Z,100017.41
2018-09-10T15:55:43.350Z,100017.09
2018-09-10T15:57:18.962Z,100017.17
2018-09-10T15:58:54.753Z,100011.23
2018-09-10T16:00:30.313Z,100007.63
2018-09-10T16:02:06.418Z,100001.51
2018-09-10T16:03:41.907Z,100006.34
2018-09-10T16:05:17.431Z,100007.37
2018-09-10T16:06:52.927Z,100000.95
2018-09-10T16:08:28.419Z,100001.58
2018-09-10T16:10:04.074Z,100002.75
2018-09-10T16:11:39.570Z,100009.56
2018-09-10T16:14:56.723Z,100004.20
2018-09-10T16:16:32.254Z,100006.80
2018-09-10T16:18:07.802Z,100011.17
2018-09-10T16:19:43.311Z,100012.06
2018-09-10T16:21:19.061Z,100018.09
2018-09-10T16:22:54.619Z,100013.59
2018-09-10T16:24:30.118Z,100020.53
2018-09-10T16:26:05.678Z,100024.61
2018-09-10T16:27:41.152Z,100032.03
2018-09-10T16:29:16.655Z,100037.34
2018-09-10T16:30:52.283Z,100040.31
2018-09-10T16:32:27.825Z,100038.34
2018-09-10T16:34:03.394Z,100036.43
2018-09-10T16:35:38.898Z,100034.56
2018-09-10T16:37:14.527Z,100034.05
2018-09-10T16:38:50.422Z,100033.17
2018-09-10T16:40:25.937Z,100030.36
2018-09-10T16:42:01.469Z,100027.09
2018-09-10T16:43:36.972Z,100031.41
2018-09-10T16:45:13.760Z,100027.50
2018-09-10T16:46:49.265Z,100026.66
2018-09-10T16:48:24.767Z,100026.16
2018-09-10T16:50:00.219Z,100022.82
2018-09-10T16:51:35.827Z,100030.20
2018-09-10T16:53:11.364Z,100028.14
2018-09-10T16:54:46.910Z,100029.66
2018-09-10T16:56:22.370Z,100030.20
2018-09-10T16:57:57.901Z,100032.82
2018-09-10T16:59:33.833Z,100032.25
2018-09-10T17:01:09.398Z,100038.84
2018-09-10T17:02:44.860Z,100040.48
2018-09-10T17:04:20.369Z,100041.86
2018-09-10T17:05:55.843Z,100034.64
2018-09-10T17:07:31.821Z,100043.03
2018-09-10T17:09:07.664Z,100035.28
2018-09-10T17:10:44.065Z,100033.56
2018-09-10T17:12:19.604Z,100032.16
2018-09-10T17:13:56.381Z,100030.94
2018-09-10T17:15:32.771Z,100022.00
2018-09-10T17:17:09.245Z,100019.55
2018-09-10T17:18:44.733Z,100027.45
2018-09-10T17:20:20.237Z,100031.95
2018-09-10T17:21:55.909Z,100027.06
2018-09-10T17:23:31.465Z,100025.05
2018-09-10T17:25:07.053Z,100024.91
2018-09-10T17:26:42.832Z,100027.03
2018-09-10T17:28:18.471Z,100024.38
2018-09-10T17:29:54.525Z,100019.77
2018-09-10T17:31:30.521Z,100029.63
2018-09-10T17:33:06.118Z,100037.75
2018-09-10T17:34:41.908Z,100041.21
2018-09-10T17:36:17.788Z,100033.80
2018-09-10T17:37:53.452Z,100035.26
2018-09-10T17:39:29.003Z,100041.73
2018-09-10T17:41:04.832Z,100048.39
2018-09-10T17:42:40.477Z,100044.77
2018-09-10T17:44:16.056Z,100045.56
2018-09-10T17:45:51.596Z,100046.30
2018-09-10T17:47:27.297Z,100049.53
2018-09-10T17:49:02.942Z,100045.77
2018-09-10T17:50:38.498Z,100057.69
2018-09-10T17:52:14.053Z,100061.31
2018-09-10T17:53:49.540Z,100055.20
2018-09-10T17:55:25.102Z,100050.28
2018-09-10T17:57:00.602Z,100050.92
2018-09-10T17:58:36.156Z,100046.96
2018-09-10T18:00:13.008Z,100055.64
2018-09-10T18:01:48.544Z,100055.80
2018-09-10T18:03:24.227Z,100051.08
2018-09-10T18:04:59.945Z,100037.95
2018-09-10T18:06:35.476Z,100038.60
2018-09-10T18:08:10.976Z,100052.41
2018-09-10T18:09:46.508Z,100055.30
2018-09-10T18:11:22.209Z,100058.88
2018-09-10T18:12:57.777Z,100059.16
2018-09-10T18:14:40.389Z,100059.42